createdAt,value
2022-08-11T00:02:15.336Z,102080.19
2022-08-11T00:04:49.281Z,102081.03
2022-08-11T00:07:23.333Z,102082.69
2022-08-11T00:09:57.753Z,102073.72
2022-08-11T00:12:31.260Z,102066.44
2022-08-11T00:15:04.494Z,102078.50
2022-08-11T00:17:39.776Z,102079.28
2022-08-11T00:20:17.504Z,102076.28
2022-08-11T00:22:51.850Z,102082.38
2022-08-11T00:25:25.590Z,102076.97
2022-08-11T00:27:58.750Z,102080.16
2022-08-11T00:30:40.533Z,102078.28
2022-08-11T00:33:15.171Z,102082.56
2022-08-11T00:35:54.595Z,102085.09
2022-08-11T00:38:35.360Z,102079.69
2022-08-11T00:41:19.823Z,102078.69
2022-08-11T00:44:13.808Z,102085.84
2022-08-11T00:46:58.746Z,102079.47
2022-08-11T00:49:44.165Z,102081.03
2022-08-11T00:52:30.758Z,102080.81
2022-08-11T00:55:37.644Z,102082.31
2022-08-11T00:58:51.030Z,102083.06
2022-08-11T01:01:36.299Z,102080.41
2022-08-11T01:04:55.546Z,102083.88
2022-08-11T01:08:03.626Z,102077.41
2022-08-11T01:10:53.936Z,102083.44
2022-08-11T01:14:05.432Z,102084.88
2022-08-11T01:17:35.830Z,102080.25
2022-08-11T01:20:47.246Z,102088.06
2022-08-11T01:24:20.174Z,102076.63
2022-08-11T01:27:25.778Z,102087.09
2022-08-11T01:30:44.469Z,102089.44
2022-08-11T01:33:32.237Z,102084.75
2022-08-11T01:36:34.090Z,102089.19
2022-08-11T01:39:33.843Z,102087.13
2022-08-11T01:42:56.920Z,102088.78
2022-08-11T01:45:37.627Z,102084.34
2022-08-11T01:48:20.651Z,102084.19
2022-08-11T01:51:03.879Z,102079.66
2022-08-11T01:53:53.231Z,102087.38
2022-08-11T01:56:36.783Z,102083.84
2022-08-11T01:59:17.136Z,102089.94
2022-08-11T02:02:05.132Z,102081.13
2022-08-11T02:04:44.127Z,102078.25
2022-08-11T02:07:31.375Z,102076.38
2022-08-11T02:10:39.393Z,102076.19
2022-08-11T02:13:19.357Z,102075.94
2022-08-11T02:16:14.779Z,102069.63
2022-08-11T02:19:10.035Z,102064.34
2022-08-11T02:22:09.211Z,102066.91
2022-08-11T02:24:47.596Z,102070.38
2022-08-11T02:27:26.337Z,102060.50
2022-08-11T02:30:05.098Z,102063.97
2022-08-11T02:33:00.274Z,102063.81
2022-08-11T02:35:45.806Z,102055.63
2022-08-11T02:38:25.958Z,102067.72
2022-08-11T02:41:29.419Z,102068.31
2022-08-11T02:44:18.651Z,102064.69
2022-08-11T02:47:03.745Z,102063.72
2022-08-11T02:50:06.304Z,102062.81
2022-08-11T02:52:48.612Z,102065.16
2022-08-11T02:55:56.403Z,102064.84
2022-08-11T02:58:27.855Z,102068.06
2022-08-11T03:01:14.039Z,102056.53
2022-08-11T03:03:54.332Z,102064.38
2022-08-11T03:06:37.007Z,102061.66
2022-08-11T03:09:18.262Z,102056.38
2022-08-11T03:12:18.847Z,102064.19
2022-08-11T03:15:17.374Z,102062.31
2022-08-11T03:18:07.106Z,102054.22
2022-08-11T03:20:45.809Z,102060.31
2022-08-11T03:23:28.234Z,102061.03
2022-08-11T03:26:08.592Z,102066.38
2022-08-11T03:28:48.193Z,102067.22
2022-08-11T03:31:26.170Z,102067.88
2022-08-11T03:34:07.569Z,102063.25
2022-08-11T03:37:16.746Z,102057.75
2022-08-11T03:40:01.021Z,102065.44
2022-08-11T03:42:44.537Z,102063.56
2022-08-11T03:45:27.160Z,102068.81
2022-08-11T03:48:10.145Z,102065.28
2022-08-11T03:51:06.006Z,102060.81
2022-08-11T03:54:16.043Z,102063.56
2022-08-11T03:57:34.906Z,102066.19
2022-08-11T04:00:30.660Z,102060.03
2022-08-11T04:03:40.047Z,102069.72
2022-08-11T04:06:51.135Z,102067.09
2022-08-11T04:09:56.522Z,102071.44
2022-08-11T04:12:48.037Z,102068.06
2022-08-11T04:16:00.891Z,102071.81
2022-08-11T04:19:24.762Z,102081.34
2022-08-11T04:22:30.422Z,102069.81
2022-08-11T04:25:58.146Z,102061.91
2022-08-11T04:28:55.730Z,102064.53
2022-08-11T04:31:51.930Z,102068.19
2022-08-11T04:34:42.496Z,102061.53
2022-08-11T04:37:54.184Z,102058.31
2022-08-11T04:40:56.013Z,102064.94
2022-08-11T04:44:08.214Z,102058.19
2022-08-11T04:47:09.595Z,102059.25
2022-08-11T04:50:20.123Z,102067.25
2022-08-11T04:53:44.568Z,102058.69
2022-08-11T04:56:39.419Z,102060.03
2022-08-11T05:00:01.681Z,102066.28
2022-08-11T05:03:14.476Z,102064.03
2022-08-11T05:06:02.671Z,102067.06
2022-08-11T05:09:19.511Z,102067.50
2022-08-11T05:12:21.104Z,102064.13
2022-08-11T05:15:13.887Z,102068.78
2022-08-11T05:18:13.987Z,102069.19
2022-08-11T05:21:10.041Z,102069.44
2022-08-11T05:24:07.455Z,102068.03
2022-08-11T05:27:13.530Z,102074.47
2022-08-11T05:30:07.636Z,102075.88
2022-08-11T05:33:02.330Z,102072.72
2022-08-11T05:36:02.048Z,102073.09
2022-08-11T05:38:55.849Z,102072.00
2022-08-11T05:41:49.712Z,102076.94
2022-08-11T05:44:42.493Z,102072.22
2022-08-11T05:47:41.725Z,102072.81
2022-08-11T05:50:37.246Z,102064.44
2022-08-11T05:53:30.596Z,102072.91
2022-08-11T05:56:19.448Z,102077.31
2022-08-11T05:58:53.875Z,102083.13
2022-08-11T06:01:32.023Z,102081.81
2022-08-11T06:04:17.664Z,102077.72
2022-08-11T06:06:57.543Z,102084.94
2022-08-11T06:09:34.093Z,102081.59
2022-08-11T06:12:09.668Z,102084.16
2022-08-11T06:14:44.348Z,102082.09
2022-08-11T06:17:24.202Z,102088.56
2022-08-11T06:20:06.098Z,102079.00
2022-08-11T06:22:42.870Z,102078.16
2022-08-11T06:25:16.981Z,102081.97
2022-08-11T06:27:56.269Z,102080.38
2022-08-11T06:30:40.839Z,102080.78
2022-08-11T06:33:19.115Z,102086.81
2022-08-11T06:36:01.201Z,102089.13
2022-08-11T06:38:53.748Z,102087.19
2022-08-11T06:41:32.630Z,102087.13
2022-08-11T06:44:19.233Z,102086.94
2022-08-11T06:46:56.029Z,102093.97
2022-08-11T06:49:56.047Z,102086.84
2022-08-11T06:52:35.026Z,102083.63
2022-08-11T06:55:55.804Z,102089.59
2022-08-11T06:58:32.085Z,102089.94
2022-08-11T07:01:10.799Z,102087.81
2022-08-11T07:03:47.531Z,102095.59
2022-08-11T07:06:41.593Z,102094.22
2022-08-11T07:10:04.498Z,102084.59
2022-08-11T07:12:59.782Z,102083.81
2022-08-11T07:16:12.910Z,102089.31
2022-08-11T07:18:59.760Z,102086.91
2022-08-11T07:22:00.965Z,102089.38
2022-08-11T07:24:59.549Z,102084.16
2022-08-11T07:28:00.677Z,102090.50
2022-08-11T07:30:38.574Z,102092.78
2022-08-11T07:33:19.017Z,102093.88
2022-08-11T07:36:12.677Z,102094.34
2022-08-11T07:38:51.425Z,102090.28
2022-08-11T07:41:28.831Z,102095.13
2022-08-11T07:44:09.822Z,102092.25
2022-08-11T07:47:02.154Z,102097.09
2022-08-11T07:49:55.482Z,102092.06
2022-08-11T07:52:32.349Z,102087.81
2022-08-11T07:55:13.125Z,102082.81
2022-08-11T07:58:15.994Z,102088.38
2022-08-11T08:01:22.454Z,102089.66
2022-08-11T08:04:14.114Z,102090.69
2022-08-11T08:07:04.772Z,102087.66
2022-08-11T08:09:56.372Z,102098.78
2022-08-11T08:12:49.050Z,102095.88
2022-08-11T08:15:41.330Z,102094.34
2022-08-11T08:18:26.259Z,102100.09
2022-08-11T08:21:12.017Z,102096.22
2022-08-11T08:23:47.709Z,102104.47
2022-08-11T08:26:48.307Z,102102.56
2022-08-11T08:29:45.848Z,102101.06
2022-08-11T08:32:19.643Z,102104.63
2022-08-11T08:34:55.570Z,102119.69
2022-08-11T08:37:45.733Z,102133.22
2022-08-11T08:40:20.769Z,102136.19
2022-08-11T08:42:56.984Z,102131.66
2022-08-11T08:45:37.692Z,102124.72
2022-08-11T08:48:14.231Z,102118.69
2022-08-11T08:51:11.760Z,102103.88
2022-08-11T08:53:53.392Z,102105.09
2022-08-11T08:56:29.408Z,102092.88
2022-08-11T08:59:03.862Z,102085.22
2022-08-11T09:01:44.632Z,102093.72
2022-08-11T09:04:21.729Z,102087.78
2022-08-11T09:06:56.698Z,102084.22
2022-08-11T09:09:29.975Z,102085.09
2022-08-11T09:12:05.621Z,102076.34
2022-08-11T09:14:58.137Z,102079.97
2022-08-11T09:17:36.582Z,102068.47
2022-08-11T09:20:13.635Z,102070.31
2022-08-11T09:26:19.343Z,102074.28
2022-08-11T09:28:53.662Z,102067.97
2022-08-11T09:31:27.043Z,102064.53
2022-08-11T09:34:02.590Z,102059.31
2022-08-11T09:36:53.756Z,102060.19
2022-08-11T09:39:46.661Z,102055.00
2022-08-11T09:42:23.770Z,102057.84
2022-08-11T09:44:57.656Z,102057.91
2022-08-11T09:47:31.608Z,102058.09
2022-08-11T09:50:07.871Z,102058.28
2022-08-11T09:52:57.102Z,102049.34
2022-08-11T09:55:35.537Z,102040.25
2022-08-11T09:58:42.806Z,102040.41
2022-08-11T10:01:27.313Z,102033.34
2022-08-11T10:04:04.948Z,102036.09
2022-08-11T10:06:58.577Z,102030.56
2022-08-11T10:09:39.777Z,102023.38
2022-08-11T10:12:17.799Z,102018.75
2022-08-11T10:15:13.202Z,102021.53
2022-08-11T10:18:03.903Z,102009.00
2022-08-11T10:20:39.024Z,102013.59
2022-08-11T10:23:32.413Z,102013.78
2022-08-11T10:26:23.999Z,102003.97
2022-08-11T10:29:12.525Z,102004.88
2022-08-11T10:32:13.337Z,102003.97
2022-08-11T10:34:49.749Z,102001.34
2022-08-11T10:38:08.464Z,102003.00
2022-08-11T10:40:29.632Z,102005.63
2022-08-11T10:43:13.396Z,101994.84
2022-08-11T10:46:07.799Z,101993.81
2022-08-11T10:48:41.339Z,101986.91
2022-08-11T10:51:14.596Z,101993.25
2022-08-11T10:54:07.524Z,101994.25
2022-08-11T10:57:04.106Z,101998.84
2022-08-11T10:59:37.407Z,101992.56
2022-08-11T11:02:15.031Z,101987.22
2022-08-11T11:05:01.039Z,101980.84
2022-08-11T11:07:44.164Z,101973.63
2022-08-11T11:10:17.744Z,101971.91
2022-08-11T11:13:13.996Z,101969.22
2022-08-11T11:16:06.484Z,101972.66
2022-08-11T11:18:39.860Z,101975.41
2022-08-11T11:21:19.769Z,101973.72
2022-08-11T11:24:06.121Z,101972.84
2022-08-11T11:26:50.321Z,101969.34
2022-08-11T11:29:47.952Z,101969.34
2022-08-11T11:32:28.611Z,101974.75
2022-08-11T11:35:18.269Z,101964.00
2022-08-11T11:38:04.525Z,101976.53
2022-08-11T11:40:40.940Z,101975.66
2022-08-11T11:43:14.069Z,101981.09
2022-08-11T11:45:48.612Z,101977.59
2022-08-11T11:48:21.781Z,101981.19
2022-08-11T11:50:58.159Z,101977.59
2022-08-11T11:53:31.940Z,101974.03
2022-08-11T11:56:06.297Z,101977.63
2022-08-11T11:58:59.037Z,101972.28
2022-08-11T12:01:34.062Z,101962.47
2022-08-11T12:04:07.886Z,101963.34
2022-08-11T12:06:42.707Z,101958.06
2022-08-11T12:09:18.564Z,101955.38
2022-08-11T12:12:09.330Z,101967.94
2022-08-11T12:14:42.673Z,101963.53
2022-08-11T12:17:17.114Z,101959.03
2022-08-11T12:19:50.764Z,101955.47
2022-08-11T12:22:41.765Z,101952.78
2022-08-11T12:25:32.910Z,101959.00
2022-08-11T12:28:06.264Z,101951.00
2022-08-11T12:33:24.057Z,101949.22
2022-08-11T12:36:00.922Z,101953.69
2022-08-11T12:38:36.060Z,101944.69
2022-08-11T12:41:28.473Z,101942.06
2022-08-11T12:44:36.792Z,101943.88
2022-08-11T12:47:10.908Z,101929.50
2022-08-11T12:50:05.691Z,101927.69
2022-08-11T12:52:56.995Z,101923.31
2022-08-11T12:56:03.697Z,101929.59
2022-08-11T12:58:42.243Z,101910.78
2022-08-11T13:01:32.824Z,101906.31
2022-08-11T13:04:24.429Z,101901.84
2022-08-11T13:07:03.145Z,101901.84
2022-08-11T13:09:36.323Z,101903.72
2022-08-11T13:12:27.263Z,101902.84
2022-08-11T13:15:01.764Z,101895.69
2022-08-11T13:17:42.349Z,101884.06
2022-08-11T13:20:20.229Z,101890.25
2022-08-11T13:22:56.607Z,101895.69
2022-08-11T13:25:32.701Z,101882.28
2022-08-11T13:28:07.214Z,101886.75
2022-08-11T13:30:59.177Z,101887.66
2022-08-11T13:33:33.572Z,101882.28
2022-08-11T13:36:08.271Z,101878.63
2022-08-11T13:38:49.515Z,101872.44
2022-08-11T13:41:39.556Z,101868.78
2022-08-11T13:44:18.185Z,101872.31
2022-08-11T13:46:53.540Z,101869.63
2022-08-11T13:49:28.076Z,101867.84
2022-08-11T13:52:02.165Z,101858.94
2022-08-11T13:54:39.375Z,101861.63
2022-08-11T13:58:06.294Z,101849.09
2022-08-11T14:00:27.673Z,101859.78
2022-08-11T14:03:01.897Z,101858.03
2022-08-11T14:05:40.296Z,101855.38
2022-08-11T14:08:33.952Z,101855.38
2022-08-11T14:12:23.644Z,101846.50
2022-08-11T14:14:35.390Z,101850.09
2022-08-11T14:17:09.875Z,101845.63
2022-08-11T14:19:48.545Z,101848.22
2022-08-11T14:22:22.239Z,101842.03
2022-08-11T14:24:56.615Z,101840.19
2022-08-11T14:28:29.785Z,101831.22
2022-08-11T14:30:41.587Z,101839.28
2022-08-11T14:33:16.765Z,101825.81
2022-08-11T14:35:51.609Z,101830.34
2022-08-11T14:38:24.692Z,101823.19
2022-08-11T14:41:15.524Z,101821.41
2022-08-11T14:44:13.655Z,101829.53
2022-08-11T14:47:24.759Z,101819.69
2022-08-11T14:50:11.668Z,101825.94
2022-08-11T14:52:51.304Z,101814.31
2022-08-11T14:55:46.897Z,101816.06
2022-08-11T14:58:24.013Z,101816.09
2022-08-11T15:00:59.959Z,101814.25
2022-08-11T15:03:33.752Z,101808.88
2022-08-11T15:06:07.369Z,101815.16
2022-08-11T15:08:55.851Z,101816.06
2022-08-11T15:11:50.176Z,101816.03
2022-08-11T15:14:37.226Z,101812.47
2022-08-11T15:17:13.274Z,101810.63
2022-08-11T15:20:01.178Z,101806.16
2022-08-11T15:22:51.303Z,101814.19
2022-08-11T15:25:24.347Z,101809.72
2022-08-11T15:28:17.050Z,101805.25
2022-08-11T15:31:12.902Z,101805.25
2022-08-11T15:34:08.484Z,101801.69
2022-08-11T15:37:01.342Z,101797.22
2022-08-11T15:39:59.261Z,101799.03
2022-08-11T15:42:52.050Z,101790.97
2022-08-11T15:45:44.660Z,101787.38
2022-08-11T15:48:29.797Z,101793.66
2022-08-11T15:51:10.776Z,101788.28
2022-08-11T15:53:56.622Z,101787.38
2022-08-11T15:56:33.413Z,101779.31
2022-08-11T15:59:42.521Z,101783.75
2022-08-11T16:02:39.278Z,101783.75
2022-08-11T16:05:45.228Z,101788.19
2022-08-11T16:08:14.254Z,101784.59
2022-08-11T16:10:48.212Z,101774.72
2022-08-11T16:13:43.257Z,101778.31
2022-08-11T16:16:18.640Z,101775.63
2022-08-11T16:18:55.815Z,101778.34
2022-08-11T16:21:36.152Z,101765.81
2022-08-11T16:27:04.133Z,101767.56
2022-08-11T16:27:13.657Z,101766.59
2022-08-11T16:29:48.862Z,101765.72
2022-08-11T16:32:24.249Z,101758.59
2022-08-11T16:35:17.494Z,101760.34
2022-08-11T16:38:10.530Z,101766.59
2022-08-11T16:40:46.235Z,101767.47
2022-08-11T16:43:39.787Z,101770.13
2022-08-11T16:46:40.079Z,101767.38
2022-08-11T16:49:17.974Z,101773.63
2022-08-11T16:51:51.075Z,101770.00
2022-08-11T16:54:24.411Z,101770.94
2022-08-11T16:57:20.125Z,101766.47
2022-08-11T16:59:57.978Z,101766.41
2022-08-11T17:02:54.069Z,101766.34
2022-08-11T17:05:54.525Z,101758.25
2022-08-11T17:08:57.609Z,101754.66
2022-08-11T17:11:54.453Z,101758.16
2022-08-11T17:14:37.740Z,101760.75
2022-08-11T17:17:14.836Z,101755.41
2022-08-11T17:20:38.569Z,101756.28
2022-08-11T17:23:03.014Z,101755.22
2022-08-11T17:25:59.223Z,101754.31
2022-08-11T17:28:31.636Z,101755.13
2022-08-11T17:31:24.215Z,101750.63
2022-08-11T17:34:17.278Z,101755.94
2022-08-11T17:36:51.322Z,101754.13
2022-08-11T17:39:29.664Z,101754.00
2022-08-11T17:42:20.685Z,101747.69
2022-08-11T17:45:12.608Z,101746.75
2022-08-11T17:48:05.821Z,101758.22
2022-08-11T17:50:40.257Z,101753.66
2022-08-11T17:53:33.688Z,101756.28
2022-08-11T17:56:25.085Z,101753.69
2022-08-11T17:59:17.068Z,101756.19
2022-08-11T18:01:53.947Z,101751.63
2022-08-11T18:04:30.615Z,101748.03
2022-08-11T18:07:03.847Z,101747.22
2022-08-11T18:09:55.148Z,101745.34
2022-08-11T18:12:45.831Z,101747.88
2022-08-11T18:15:37.034Z,101746.88
2022-08-11T18:18:30.416Z,101749.53
2022-08-11T18:21:24.555Z,101747.59
2022-08-11T18:24:23.482Z,101748.50
2022-08-11T18:27:17.734Z,101751.94
2022-08-11T18:30:13.425Z,101755.31
2022-08-11T18:33:45.151Z,101757.03
2022-08-11T18:36:18.864Z,101763.94
2022-08-11T18:39:12.531Z,101760.25
2022-08-11T18:42:05.124Z,101766.25
2022-08-11T18:44:57.246Z,101770.56
2022-08-11T18:47:50.161Z,101768.59
2022-08-11T18:50:50.321Z,101764.84
2022-08-11T18:54:00.612Z,101767.38
2022-08-11T18:56:54.069Z,101767.09
2022-08-11T18:59:47.428Z,101777.59
2022-08-11T19:02:48.883Z,101784.59
2022-08-11T19:06:32.350Z,101776.47
2022-08-11T19:08:56.074Z,101777.13
2022-08-11T19:11:49.027Z,101781.41
2022-08-11T19:14:44.669Z,101774.22
2022-08-11T19:17:43.444Z,101778.38
2022-08-11T19:20:39.576Z,101778.22
2022-08-11T19:23:33.601Z,101780.66
2022-08-11T19:26:26.430Z,101785.78
2022-08-11T19:30:07.161Z,101787.38
2022-08-11T19:32:31.204Z,101787.44
2022-08-11T19:35:23.029Z,101785.34
2022-08-11T19:38:14.375Z,101789.72
2022-08-11T19:41:06.260Z,101791.22
2022-08-11T19:43:58.027Z,101799.03
2022-08-11T19:46:50.515Z,101790.94
2022-08-11T19:49:43.644Z,101795.19
2022-08-11T19:52:34.766Z,101790.47
2022-08-11T19:55:27.209Z,101786.81
2022-08-11T19:58:18.136Z,101791.91
2022-08-11T20:01:08.522Z,101789.88
2022-08-11T20:03:59.455Z,101791.50
2022-08-11T20:06:54.374Z,101787.72
2022-08-11T20:10:04.644Z,101791.09
2022-08-11T20:12:57.827Z,101788.34
2022-08-11T20:15:49.202Z,101784.72
2022-08-11T20:18:43.034Z,101786.16
2022-08-11T20:21:33.445Z,101780.75
2022-08-11T20:24:26.675Z,101784.19
2022-08-11T20:27:24.757Z,101792.88
2022-08-11T20:30:17.452Z,101797.28
2022-08-11T20:33:10.474Z,101792.72
2022-08-11T20:36:01.004Z,101795.94
2022-08-11T20:38:52.859Z,101791.28
2022-08-11T20:41:58.687Z,101791.97
2022-08-11T20:44:52.241Z,101783.84
2022-08-11T20:47:58.898Z,101792.53
2022-08-11T20:50:52.445Z,101791.66
2022-08-11T20:53:45.233Z,101791.66
2022-08-11T20:56:37.646Z,101790.53
2022-08-11T20:59:33.348Z,101783.28
2022-08-11T21:02:41.085Z,101786.63
2022-08-11T21:06:09.490Z,101782.16
2022-08-11T21:08:50.347Z,101787.38
2022-08-11T21:11:41.862Z,101792.53
2022-08-11T21:14:38.459Z,101789.75
2022-08-11T21:17:37.744Z,101794.84
2022-08-11T21:20:50.127Z,101804.44
2022-08-11T21:23:42.105Z,101798.09
2022-08-11T21:26:36.460Z,101805.25
2022-08-11T21:29:28.749Z,101805.06
2022-08-11T21:32:21.352Z,101800.41
2022-08-11T21:35:12.682Z,101804.72
2022-08-11T21:38:07.091Z,101799.59
2022-08-11T21:41:00.040Z,101797.66
2022-08-11T21:43:53.955Z,101802.91
2022-08-11T21:46:45.744Z,101802.81
2022-08-11T21:49:38.724Z,101803.56
2022-08-11T21:52:30.316Z,101798.09
2022-08-11T21:55:21.532Z,101797.75
2022-08-11T21:58:13.544Z,101805.63
2022-08-11T22:01:04.510Z,101803.06
2022-08-11T22:03:57.194Z,101805.28
2022-08-11T22:06:49.588Z,101807.00
2022-08-11T22:09:40.042Z,101805.09
2022-08-11T22:12:35.253Z,101812.78
2022-08-11T22:15:33.797Z,101810.94
2022-08-11T22:18:24.536Z,101808.00
2022-08-11T22:21:18.033Z,101810.53
2022-08-11T22:24:29.999Z,101814.72
2022-08-11T22:27:21.345Z,101815.63
2022-08-11T22:30:11.605Z,101814.72
2022-08-11T22:33:03.157Z,101808.44
2022-08-11T22:35:54.353Z,101809.94
2022-08-11T22:38:46.153Z,101810.53
2022-08-11T22:41:39.204Z,101811.25
2022-08-11T22:44:30.706Z,101805.88
2022-08-11T22:47:23.448Z,101800.56
2022-08-11T22:50:19.810Z,101801.47
2022-08-11T22:53:11.203Z,101804.91
2022-08-11T22:56:02.120Z,101804.63
2022-08-11T22:58:54.731Z,101806.22
2022-08-11T23:01:56.176Z,101805.19
2022-08-11T23:04:53.211Z,101808.59
2022-08-11T23:07:51.479Z,101804.78
2022-08-11T23:10:43.309Z,101809.84
2022-08-11T23:13:34.282Z,101806.19
2022-08-11T23:16:26.772Z,101804.34
2022-08-11T23:20:07.706Z,101808.66
2022-08-11T23:22:39.506Z,101807.50
2022-08-11T23:25:40.068Z,101811.78
2022-08-11T23:28:32.170Z,101814.38
2022-08-11T23:31:23.413Z,101808.97
2022-08-11T23:34:37.034Z,101799.97
2022-08-11T23:37:27.814Z,101799.84
2022-08-11T23:40:20.143Z,101805.03
2022-08-11T23:43:12.298Z,101804.97
2022-08-11T23:46:02.413Z,101807.53
2022-08-11T23:48:55.760Z,101808.31
2022-08-11T23:51:47.680Z,101798.53
2022-08-11T23:54:38.468Z,101805.50
2022-08-11T23:57:29.185Z,101808.13
